sensor_id;sensor_type;location;lat;lon;timestamp;P1;durP1;ratioP1;P2;durP2;ratioP2
77888;SDS011;67082;41.704;44.768;2023-04-06T00:00:28;13.65;;;4.18;;
77888;SDS011;67082;41.704;44.768;2023-04-06T00:03:13;6.00;;;3.15;;
77888;SDS011;67082;41.704;44.768;2023-04-06T00:05:42;9.35;;;3.30;;
77888;SDS011;67082;41.704;44.768;2023-04-06T00:08:10;9.02;;;3.40;;
77888;SDS011;67082;41.704;44.768;2023-04-06T00:10:38;8.40;;;3.38;;
77888;SDS011;67082;41.704;44.768;2023-04-06T00:13:07;12.63;;;4.10;;
77888;SDS011;67082;41.704;44.768;2023-04-06T00:15:35;8.55;;;3.40;;
77888;SDS011;67082;41.704;44.768;2023-04-06T00:18:03;8.82;;;3.60;;
77888;SDS011;67082;41.704;44.768;2023-04-06T00:20:32;8.10;;;3.63;;
77888;SDS011;67082;41.704;44.768;2023-04-06T00:23:00;11.15;;;4.00;;
77888;SDS011;67082;41.704;44.768;2023-04-06T00:25:28;9.75;;;4.00;;
77888;SDS011;67082;41.704;44.768;2023-04-06T00:27:56;11.30;;;3.88;;
77888;SDS011;67082;41.704;44.768;2023-04-06T00:30:26;11.77;;;3.65;;
77888;SDS011;67082;41.704;44.768;2023-04-06T00:32:54;12.30;;;3.75;;
77888;SDS011;67082;41.704;44.768;2023-04-06T00:35:22;7.93;;;3.70;;
77888;SDS011;67082;41.704;44.768;2023-04-06T00:37:50;10.60;;;3.60;;
77888;SDS011;67082;41.704;44.768;2023-04-06T00:40:18;9.65;;;3.38;;
77888;SDS011;67082;41.704;44.768;2023-04-06T00:42:47;10.18;;;3.72;;
77888;SDS011;67082;41.704;44.768;2023-04-06T00:45:15;9.52;;;3.50;;
77888;SDS011;67082;41.704;44.768;2023-04-06T00:47:43;9.35;;;3.72;;
77888;SDS011;67082;41.704;44.768;2023-04-06T00:50:13;10.63;;;3.80;;
77888;SDS011;67082;41.704;44.768;2023-04-06T00:52:40;9.05;;;3.42;;
77888;SDS011;67082;41.704;44.768;2023-04-06T00:55:09;8.98;;;3.90;;
77888;SDS011;67082;41.704;44.768;2023-04-06T00:57:41;8.52;;;4.00;;
77888;SDS011;67082;41.704;44.768;2023-04-06T01:00:09;14.27;;;4.32;;
77888;SDS011;67082;41.704;44.768;2023-04-06T01:02:40;9.23;;;3.70;;
77888;SDS011;67082;41.704;44.768;2023-04-06T01:05:10;15.07;;;4.15;;
77888;SDS011;67082;41.704;44.768;2023-04-06T01:07:54;9.45;;;3.90;;
77888;SDS011;67082;41.704;44.768;2023-04-06T01:10:26;9.15;;;3.60;;
77888;SDS011;67082;41.704;44.768;2023-04-06T01:13:15;9.02;;;3.72;;
77888;SDS011;67082;41.704;44.768;2023-04-06T01:16:00;8.07;;;3.80;;
77888;SDS011;67082;41.704;44.768;2023-04-06T01:18:51;9.65;;;3.65;;
77888;SDS011;67082;41.704;44.768;2023-04-06T01:21:24;7.78;;;3.65;;
77888;SDS011;67082;41.704;44.768;2023-04-06T01:24:12;11.45;;;3.90;;
77888;SDS011;67082;41.704;44.768;2023-04-06T01:27:01;11.10;;;4.00;;
77888;SDS011;67082;41.704;44.768;2023-04-06T01:29:56;10.05;;;3.75;;
77888;SDS011;67082;41.704;44.768;2023-04-06T01:32:43;10.43;;;3.72;;
77888;SDS011;67082;41.704;44.768;2023-04-06T01:35:14;9.88;;;3.45;;
77888;SDS011;67082;41.704;44.768;2023-04-06T01:37:52;10.43;;;3.80;;
77888;SDS011;67082;41.704;44.768;2023-04-06T01:40:27;11.50;;;3.72;;
77888;SDS011;67082;41.704;44.768;2023-04-06T01:42:56;10.40;;;3.60;;
77888;SDS011;67082;41.704;44.768;2023-04-06T01:45:33;12.45;;;3.80;;
77888;SDS011;67082;41.704;44.768;2023-04-06T01:48:12;9.90;;;3.75;;
77888;SDS011;67082;41.704;44.768;2023-04-06T01:50:40;8.50;;;4.10;;
77888;SDS011;67082;41.704;44.768;2023-04-06T01:53:11;8.40;;;3.85;;
77888;SDS011;67082;41.704;44.768;2023-04-06T01:55:41;10.05;;;3.58;;
77888;SDS011;67082;41.704;44.768;2023-04-06T01:58:23;6.82;;;3.50;;
77888;SDS011;67082;41.704;44.768;2023-04-06T02:00:51;7.28;;;3.58;;
77888;SDS011;67082;41.704;44.768;2023-04-06T02:03:20;8.38;;;3.78;;
77888;SDS011;67082;41.704;44.768;2023-04-06T02:05:55;10.30;;;3.70;;
77888;SDS011;67082;41.704;44.768;2023-04-06T02:08:29;9.52;;;3.60;;
77888;SDS011;67082;41.704;44.768;2023-04-06T02:10:57;9.32;;;3.15;;
77888;SDS011;67082;41.704;44.768;2023-04-06T02:13:33;10.43;;;3.35;;
77888;SDS011;67082;41.704;44.768;2023-04-06T02:16:01;7.82;;;3.47;;
77888;SDS011;67082;41.704;44.768;2023-04-06T02:18:30;10.30;;;4.13;;
77888;SDS011;67082;41.704;44.768;2023-04-06T02:20:58;13.93;;;4.55;;
77888;SDS011;67082;41.704;44.768;2023-04-06T02:23:27;8.38;;;3.60;;
77888;SDS011;67082;41.704;44.768;2023-04-06T02:25:56;7.95;;;3.42;;
77888;SDS011;67082;41.704;44.768;2023-04-06T02:28:25;8.48;;;3.53;;
77888;SDS011;67082;41.704;44.768;2023-04-06T02:30:53;7.93;;;3.70;;
77888;SDS011;67082;41.704;44.768;2023-04-06T02:33:25;7.63;;;3.40;;
77888;SDS011;67082;41.704;44.768;2023-04-06T02:35:53;9.65;;;3.47;;
77888;SDS011;67082;41.704;44.768;2023-04-06T02:38:23;10.88;;;3.92;;
77888;SDS011;67082;41.704;44.768;2023-04-06T02:40:51;7.93;;;4.03;;
77888;SDS011;67082;41.704;44.768;2023-04-06T02:43:23;6.93;;;3.33;;
77888;SDS011;67082;41.704;44.768;2023-04-06T02:46:00;7.82;;;3.53;;
77888;SDS011;67082;41.704;44.768;2023-04-06T02:48:32;10.27;;;3.63;;
77888;SDS011;67082;41.704;44.768;2023-04-06T02:51:04;11.38;;;4.38;;
77888;SDS011;67082;41.704;44.768;2023-04-06T02:53:33;10.48;;;3.63;;
77888;SDS011;67082;41.704;44.768;2023-04-06T02:56:01;9.00;;;3.53;;
77888;SDS011;67082;41.704;44.768;2023-04-06T02:58:41;7.57;;;3.22;;
77888;SDS011;67082;41.704;44.768;2023-04-06T03:01:09;10.05;;;3.60;;
77888;SDS011;67082;41.704;44.768;2023-04-06T03:03:39;11.15;;;3.75;;
77888;SDS011;67082;41.704;44.768;2023-04-06T03:06:13;12.95;;;4.20;;
77888;SDS011;67082;41.704;44.768;2023-04-06T03:08:43;13.88;;;3.70;;
77888;SDS011;67082;41.704;44.768;2023-04-06T03:11:11;7.22;;;3.38;;
77888;SDS011;67082;41.704;44.768;2023-04-06T03:13:42;9.63;;;3.83;;
77888;SDS011;67082;41.704;44.768;2023-04-06T03:16:10;9.27;;;3.80;;
77888;SDS011;67082;41.704;44.768;2023-04-06T03:18:40;11.05;;;3.13;;
77888;SDS011;67082;41.704;44.768;2023-04-06T03:21:08;9.15;;;3.70;;
77888;SDS011;67082;41.704;44.768;2023-04-06T03:23:47;7.65;;;3.47;;
77888;SDS011;67082;41.704;44.768;2023-04-06T03:26:18;11.15;;;3.92;;
77888;SDS011;67082;41.704;44.768;2023-04-06T03:28:47;6.32;;;3.33;;
77888;SDS011;67082;41.704;44.768;2023-04-06T03:31:15;9.75;;;3.15;;
77888;SDS011;67082;41.704;44.768;2023-04-06T03:33:58;8.45;;;3.38;;
77888;SDS011;67082;41.704;44.768;2023-04-06T03:36:33;8.27;;;3.65;;
77888;SDS011;67082;41.704;44.768;2023-04-06T03:39:03;7.93;;;3.17;;
77888;SDS011;67082;41.704;44.768;2023-04-06T03:41:35;9.32;;;3.65;;
77888;SDS011;67082;41.704;44.768;2023-04-06T03:44:24;6.32;;;3.20;;
77888;SDS011;67082;41.704;44.768;2023-04-06T03:46:52;8.75;;;4.13;;
77888;SDS011;67082;41.704;44.768;2023-04-06T03:49:21;7.93;;;3.00;;
77888;SDS011;67082;41.704;44.768;2023-04-06T03:51:50;9.50;;;3.28;;
77888;SDS011;67082;41.704;44.768;2023-04-06T03:54:19;8.20;;;3.20;;
77888;SDS011;67082;41.704;44.768;2023-04-06T03:56:47;9.82;;;3.40;;
77888;SDS011;67082;41.704;44.768;2023-04-06T03:59:15;11.18;;;3.42;;
77888;SDS011;67082;41.704;44.768;2023-04-06T04:01:43;11.05;;;3.47;;
77888;SDS011;67082;41.704;44.768;2023-04-06T04:04:12;9.93;;;3.55;;
77888;SDS011;67082;41.704;44.768;2023-04-06T04:06:40;7.50;;;3.13;;
77888;SDS011;67082;41.704;44.768;2023-04-06T04:09:08;8.75;;;2.88;;
77888;SDS011;67082;41.704;44.768;2023-04-06T04:11:36;8.55;;;3.70;;
77888;SDS011;67082;41.704;44.768;2023-04-06T04:14:05;8.48;;;3.50;;
77888;SDS011;67082;41.704;44.768;2023-04-06T04:16:33;8.57;;;3.70;;
77888;SDS011;67082;41.704;44.768;2023-04-06T04:19:02;8.25;;;3.42;;
77888;SDS011;67082;41.704;44.768;2023-04-06T04:21:30;12.88;;;3.45;;
77888;SDS011;67082;41.704;44.768;2023-04-06T04:24:04;9.50;;;3.85;;
77888;SDS011;67082;41.704;44.768;2023-04-06T04:26:34;12.68;;;3.95;;
77888;SDS011;67082;41.704;44.768;2023-04-06T04:29:03;8.75;;;3.72;;
77888;SDS011;67082;41.704;44.768;2023-04-06T04:31:31;12.30;;;4.43;;
77888;SDS011;67082;41.704;44.768;2023-04-06T04:34:03;10.80;;;4.38;;
77888;SDS011;67082;41.704;44.768;2023-04-06T04:36:35;13.50;;;4.78;;
77888;SDS011;67082;41.704;44.768;2023-04-06T04:39:07;12.63;;;4.20;;
77888;SDS011;67082;41.704;44.768;2023-04-06T04:41:41;13.48;;;4.05;;
77888;SDS011;67082;41.704;44.768;2023-04-06T04:44:11;11.77;;;4.50;;
77888;SDS011;67082;41.704;44.768;2023-04-06T04:46:41;13.05;;;4.90;;
77888;SDS011;67082;41.704;44.768;2023-04-06T04:49:11;13.40;;;4.97;;
77888;SDS011;67082;41.704;44.768;2023-04-06T04:51:40;16.25;;;5.55;;
77888;SDS011;67082;41.704;44.768;2023-04-06T04:54:24;12.55;;;5.18;;
77888;SDS011;67082;41.704;44.768;2023-04-06T04:56:52;14.98;;;5.10;;
77888;SDS011;67082;41.704;44.768;2023-04-06T04:59:35;15.70;;;4.85;;
77888;SDS011;67082;41.704;44.768;2023-04-06T05:02:15;11.98;;;4.50;;
77888;SDS011;67082;41.704;44.768;2023-04-06T05:04:59;13.25;;;4.40;;
77888;SDS011;67082;41.704;44.768;2023-04-06T05:07:30;11.18;;;4.07;;
77888;SDS011;67082;41.704;44.768;2023-04-06T05:10:00;11.05;;;3.85;;
77888;SDS011;67082;41.704;44.768;2023-04-06T05:12:34;10.25;;;4.00;;
77888;SDS011;67082;41.704;44.768;2023-04-06T05:15:06;14.85;;;3.65;;
77888;SDS011;67082;41.704;44.768;2023-04-06T05:17:37;10.50;;;3.78;;
77888;SDS011;67082;41.704;44.768;2023-04-06T05:20:07;11.05;;;3.60;;
77888;SDS011;67082;41.704;44.768;2023-04-06T05:25:12;8.05;;;3.20;;
77888;SDS011;67082;41.704;44.768;2023-04-06T05:27:41;7.82;;;3.15;;
77888;SDS011;67082;41.704;44.768;2023-04-06T05:30:24;9.55;;;2.95;;
77888;SDS011;67082;41.704;44.768;2023-04-06T05:32:53;11.63;;;2.85;;
77888;SDS011;67082;41.704;44.768;2023-04-06T05:35:24;8.98;;;2.55;;
77888;SDS011;67082;41.704;44.768;2023-04-06T05:37:59;7.85;;;2.13;;
77888;SDS011;67082;41.704;44.768;2023-04-06T05:40:28;7.65;;;2.10;;
77888;SDS011;67082;41.704;44.768;2023-04-06T05:42:56;6.93;;;1.55;;
77888;SDS011;67082;41.704;44.768;2023-04-06T05:45:25;6.88;;;2.00;;
77888;SDS011;67082;41.704;44.768;2023-04-06T05:47:55;4.30;;;1.60;;
77888;SDS011;67082;41.704;44.768;2023-04-06T05:50:28;6.15;;;2.13;;
77888;SDS011;67082;41.704;44.768;2023-04-06T05:52:58;6.43;;;2.10;;
77888;SDS011;67082;41.704;44.768;2023-04-06T05:55:32;7.47;;;2.22;;
77888;SDS011;67082;41.704;44.768;2023-04-06T05:58:10;7.60;;;1.73;;
77888;SDS011;67082;41.704;44.768;2023-04-06T06:00:38;4.88;;;1.70;;
77888;SDS011;67082;41.704;44.768;2023-04-06T06:03:08;11.68;;;2.03;;
77888;SDS011;67082;41.704;44.768;2023-04-06T06:05:39;6.78;;;1.90;;
77888;SDS011;67082;41.704;44.768;2023-04-06T06:08:16;4.93;;;2.00;;
77888;SDS011;67082;41.704;44.768;2023-04-06T06:10:47;11.00;;;2.28;;
77888;SDS011;67082;41.704;44.768;2023-04-06T06:13:18;5.32;;;1.85;;
77888;SDS011;67082;41.704;44.768;2023-04-06T06:15:47;9.02;;;2.45;;
77888;SDS011;67082;41.704;44.768;2023-04-06T06:18:16;8.02;;;1.90;;
77888;SDS011;67082;41.704;44.768;2023-04-06T06:20:47;12.95;;;2.05;;
77888;SDS011;67082;41.704;44.768;2023-04-06T06:23:15;7.57;;;2.25;;
77888;SDS011;67082;41.704;44.768;2023-04-06T06:25:43;6.95;;;2.17;;
77888;SDS011;67082;41.704;44.768;2023-04-06T06:28:12;9.52;;;1.90;;
77888;SDS011;67082;41.704;44.768;2023-04-06T06:30:41;7.05;;;2.10;;
77888;SDS011;67082;41.704;44.768;2023-04-06T06:33:09;5.20;;;1.92;;
77888;SDS011;67082;41.704;44.768;2023-04-06T06:35:38;9.52;;;2.25;;
77888;SDS011;67082;41.704;44.768;2023-04-06T06:38:06;5.63;;;1.70;;
77888;SDS011;67082;41.704;44.768;2023-04-06T06:40:34;5.97;;;1.60;;
77888;SDS011;67082;41.704;44.768;2023-04-06T06:43:04;7.70;;;1.83;;
77888;SDS011;67082;41.704;44.768;2023-04-06T06:45:43;4.00;;;1.52;;
77888;SDS011;67082;41.704;44.768;2023-04-06T06:48:13;6.15;;;1.67;;
77888;SDS011;67082;41.704;44.768;2023-04-06T06:50:41;7.05;;;2.00;;
77888;SDS011;67082;41.704;44.768;2023-04-06T06:53:09;6.57;;;1.90;;
77888;SDS011;67082;41.704;44.768;2023-04-06T06:55:37;5.43;;;1.98;;
77888;SDS011;67082;41.704;44.768;2023-04-06T06:58:05;6.20;;;2.15;;
77888;SDS011;67082;41.704;44.768;2023-04-06T07:00:34;6.20;;;1.90;;
77888;SDS011;67082;41.704;44.768;2023-04-06T07:03:02;4.65;;;2.08;;
77888;SDS011;67082;41.704;44.768;2023-04-06T07:05:30;5.35;;;2.25;;
77888;SDS011;67082;41.704;44.768;2023-04-06T07:07:58;6.07;;;2.20;;
77888;SDS011;67082;41.704;44.768;2023-04-06T07:10:27;7.63;;;2.20;;
77888;SDS011;67082;41.704;44.768;2023-04-06T07:12:55;5.65;;;2.15;;
77888;SDS011;67082;41.704;44.768;2023-04-06T07:15:23;10.57;;;2.28;;
77888;SDS011;67082;41.704;44.768;2023-04-06T07:17:51;14.75;;;2.20;;
77888;SDS011;67082;41.704;44.768;2023-04-06T07:20:22;8.93;;;2.08;;
77888;SDS011;67082;41.704;44.768;2023-04-06T07:22:50;13.20;;;2.20;;
77888;SDS011;67082;41.704;44.768;2023-04-06T07:25:19;7.47;;;2.05;;
77888;SDS011;67082;41.704;44.768;2023-04-06T07:27:49;11.45;;;2.50;;
77888;SDS011;67082;41.704;44.768;2023-04-06T07:30:18;7.68;;;2.25;;
77888;SDS011;67082;41.704;44.768;2023-04-06T07:32:47;6.30;;;2.20;;
77888;SDS011;67082;41.704;44.768;2023-04-06T07:35:16;11.45;;;2.20;;
77888;SDS011;67082;41.704;44.768;2023-04-06T07:37:43;7.30;;;1.83;;
77888;SDS011;67082;41.704;44.768;2023-04-06T07:40:13;6.88;;;2.22;;
77888;SDS011;67082;41.704;44.768;2023-04-06T07:42:41;6.60;;;1.85;;
77888;SDS011;67082;41.704;44.768;2023-04-06T07:45:10;6.22;;;1.90;;
77888;SDS011;67082;41.704;44.768;2023-04-06T07:47:39;8.75;;;2.05;;
77888;SDS011;67082;41.704;44.768;2023-04-06T07:50:07;5.13;;;2.10;;
77888;SDS011;67082;41.704;44.768;2023-04-06T07:52:36;7.60;;;2.03;;
77888;SDS011;67082;41.704;44.768;2023-04-06T07:55:07;6.10;;;2.13;;
77888;SDS011;67082;41.704;44.768;2023-04-06T07:57:35;8.02;;;2.53;;
77888;SDS011;67082;41.704;44.768;2023-04-06T08:00:03;7.32;;;2.45;;
77888;SDS011;67082;41.704;44.768;2023-04-06T08:02:38;7.45;;;2.40;;
77888;SDS011;67082;41.704;44.768;2023-04-06T08:05:06;8.10;;;2.53;;
77888;SDS011;67082;41.704;44.768;2023-04-06T08:07:35;9.25;;;2.25;;
77888;SDS011;67082;41.704;44.768;2023-04-06T08:10:04;7.18;;;1.90;;
77888;SDS011;67082;41.704;44.768;2023-04-06T08:12:32;6.13;;;2.35;;
77888;SDS011;67082;41.704;44.768;2023-04-06T08:15:01;12.07;;;2.60;;
77888;SDS011;67082;41.704;44.768;2023-04-06T08:17:31;4.63;;;2.38;;
77888;SDS011;67082;41.704;44.768;2023-04-06T08:20:00;8.50;;;2.22;;
77888;SDS011;67082;41.704;44.768;2023-04-06T08:22:29;7.38;;;2.33;;
77888;SDS011;67082;41.704;44.768;2023-04-06T08:24:57;7.97;;;2.30;;
77888;SDS011;67082;41.704;44.768;2023-04-06T08:27:25;7.70;;;2.20;;
77888;SDS011;67082;41.704;44.768;2023-04-06T08:29:54;5.57;;;2.30;;
77888;SDS011;67082;41.704;44.768;2023-04-06T08:32:22;10.00;;;2.33;;
77888;SDS011;67082;41.704;44.768;2023-04-06T08:34:52;8.32;;;2.47;;
77888;SDS011;67082;41.704;44.768;2023-04-06T08:37:22;12.02;;;2.78;;
77888;SDS011;67082;41.704;44.768;2023-04-06T08:39:52;7.40;;;1.98;;
77888;SDS011;67082;41.704;44.768;2023-04-06T08:42:20;9.90;;;2.40;;
77888;SDS011;67082;41.704;44.768;2023-04-06T08:44:49;8.57;;;2.55;;
77888;SDS011;67082;41.704;44.768;2023-04-06T08:47:21;9.13;;;2.45;;
77888;SDS011;67082;41.704;44.768;2023-04-06T08:49:52;8.05;;;2.42;;
77888;SDS011;67082;41.704;44.768;2023-04-06T08:52:21;7.57;;;2.50;;
77888;SDS011;67082;41.704;44.768;2023-04-06T08:54:51;9.50;;;2.00;;
77888;SDS011;67082;41.704;44.768;2023-04-06T08:57:21;10.20;;;2.28;;
77888;SDS011;67082;41.704;44.768;2023-04-06T08:59:52;8.38;;;2.25;;
77888;SDS011;67082;41.704;44.768;2023-04-06T09:02:21;10.75;;;2.33;;
77888;SDS011;67082;41.704;44.768;2023-04-06T09:04:52;6.50;;;2.17;;
77888;SDS011;67082;41.704;44.768;2023-04-06T09:07:21;10.95;;;2.22;;
77888;SDS011;67082;41.704;44.768;2023-04-06T09:09:49;8.10;;;2.15;;
77888;SDS011;67082;41.704;44.768;2023-04-06T09:12:25;7.78;;;2.35;;
77888;SDS011;67082;41.704;44.768;2023-04-06T09:14:55;12.00;;;2.38;;
77888;SDS011;67082;41.704;44.768;2023-04-06T09:17:25;8.95;;;2.55;;
77888;SDS011;67082;41.704;44.768;2023-04-06T09:19:58;8.73;;;2.53;;
77888;SDS011;67082;41.704;44.768;2023-04-06T09:22:34;8.25;;;2.40;;
77888;SDS011;67082;41.704;44.768;2023-04-06T09:25:08;10.25;;;2.35;;
77888;SDS011;67082;41.704;44.768;2023-04-06T09:27:38;10.23;;;2.42;;
77888;SDS011;67082;41.704;44.768;2023-04-06T09:30:09;9.55;;;2.50;;
77888;SDS011;67082;41.704;44.768;2023-04-06T09:32:59;15.85;;;2.47;;
77888;SDS011;67082;41.704;44.768;2023-04-06T09:37:57;8.75;;;2.20;;
77888;SDS011;67082;41.704;44.768;2023-04-06T09:40:26;9.13;;;2.40;;
77888;SDS011;67082;41.704;44.768;2023-04-06T09:42:58;16.60;;;3.08;;
77888;SDS011;67082;41.704;44.768;2023-04-06T09:45:27;5.80;;;2.15;;
77888;SDS011;67082;41.704;44.768;2023-04-06T09:47:58;4.55;;;2.17;;
77888;SDS011;67082;41.704;44.768;2023-04-06T09:50:27;9.93;;;2.40;;
77888;SDS011;67082;41.704;44.768;2023-04-06T09:52:57;7.03;;;2.35;;
77888;SDS011;67082;41.704;44.768;2023-04-06T09:55:32;13.02;;;2.85;;
77888;SDS011;67082;41.704;44.768;2023-04-06T09:58:06;6.95;;;2.50;;
77888;SDS011;67082;41.704;44.768;2023-04-06T10:06:13;8.82;;;2.10;;
77888;SDS011;67082;41.704;44.768;2023-04-06T10:08:45;6.32;;;2.05;;
77888;SDS011;67082;41.704;44.768;2023-04-06T10:11:15;9.10;;;2.65;;
77888;SDS011;67082;41.704;44.768;2023-04-06T10:13:45;9.48;;;2.42;;
77888;SDS011;67082;41.704;44.768;2023-04-06T10:16:18;7.13;;;2.40;;
77888;SDS011;67082;41.704;44.768;2023-04-06T10:18:47;7.90;;;2.33;;
77888;SDS011;67082;41.704;44.768;2023-04-06T10:21:23;11.45;;;2.95;;
77888;SDS011;67082;41.704;44.768;2023-04-06T10:23:59;8.95;;;2.65;;
77888;SDS011;67082;41.704;44.768;2023-04-06T10:26:29;9.68;;;3.03;;
77888;SDS011;67082;41.704;44.768;2023-04-06T10:29:02;7.85;;;2.22;;
77888;SDS011;67082;41.704;44.768;2023-04-06T10:31:31;9.52;;;3.40;;
77888;SDS011;67082;41.704;44.768;2023-04-06T10:34:00;10.80;;;3.88;;
77888;SDS011;67082;41.704;44.768;2023-04-06T10:36:33;13.68;;;3.40;;
77888;SDS011;67082;41.704;44.768;2023-04-06T10:39:03;9.80;;;2.83;;
77888;SDS011;67082;41.704;44.768;2023-04-06T10:41:35;11.65;;;2.75;;
77888;SDS011;67082;41.704;44.768;2023-04-06T10:44:17;11.00;;;2.72;;
77888;SDS011;67082;41.704;44.768;2023-04-06T10:46:55;8.90;;;3.10;;
77888;SDS011;67082;41.704;44.768;2023-04-06T10:49:25;9.52;;;2.80;;
77888;SDS011;67082;41.704;44.768;2023-04-06T10:51:55;11.35;;;3.08;;
77888;SDS011;67082;41.704;44.768;2023-04-06T10:54:25;10.52;;;2.40;;
77888;SDS011;67082;41.704;44.768;2023-04-06T10:56:54;11.10;;;3.00;;
77888;SDS011;67082;41.704;44.768;2023-04-06T10:59:24;5.95;;;2.25;;
77888;SDS011;67082;41.704;44.768;2023-04-06T11:01:54;7.32;;;2.50;;
77888;SDS011;67082;41.704;44.768;2023-04-06T11:04:24;13.38;;;2.90;;
77888;SDS011;67082;41.704;44.768;2023-04-06T11:06:53;8.20;;;2.20;;
77888;SDS011;67082;41.704;44.768;2023-04-06T11:09:24;6.82;;;2.13;;
77888;SDS011;67082;41.704;44.768;2023-04-06T11:11:54;9.52;;;2.47;;
77888;SDS011;67082;41.704;44.768;2023-04-06T11:14:25;12.95;;;2.40;;
77888;SDS011;67082;41.704;44.768;2023-04-06T11:16:54;8.13;;;2.58;;
77888;SDS011;67082;41.704;44.768;2023-04-06T11:19:26;9.80;;;2.33;;
77888;SDS011;67082;41.704;44.768;2023-04-06T11:21:54;7.32;;;2.22;;
77888;SDS011;67082;41.704;44.768;2023-04-06T11:24:26;11.57;;;2.20;;
77888;SDS011;67082;41.704;44.768;2023-04-06T11:26:55;12.18;;;2.45;;
77888;SDS011;67082;41.704;44.768;2023-04-06T11:29:26;10.48;;;1.80;;
77888;SDS011;67082;41.704;44.768;2023-04-06T11:32:01;11.02;;;2.30;;
77888;SDS011;67082;41.704;44.768;2023-04-06T11:34:35;8.32;;;1.80;;
77888;SDS011;67082;41.704;44.768;2023-04-06T11:37:08;7.53;;;2.13;;
77888;SDS011;67082;41.704;44.768;2023-04-06T11:39:38;7.95;;;2.35;;
77888;SDS011;67082;41.704;44.768;2023-04-06T11:42:08;8.52;;;2.30;;
77888;SDS011;67082;41.704;44.768;2023-04-06T11:44:38;8.48;;;1.95;;
77888;SDS011;67082;41.704;44.768;2023-04-06T11:47:10;6.13;;;1.73;;
77888;SDS011;67082;41.704;44.768;2023-04-06T11:49:39;5.35;;;1.60;;
77888;SDS011;67082;41.704;44.768;2023-04-06T11:52:20;6.40;;;1.73;;
77888;SDS011;67082;41.704;44.768;2023-04-06T11:54:53;10.38;;;1.90;;
77888;SDS011;67082;41.704;44.768;2023-04-06T11:57:22;8.77;;;2.53;;
77888;SDS011;67082;41.704;44.768;2023-04-06T11:59:55;10.13;;;2.25;;
77888;SDS011;67082;41.704;44.768;2023-04-06T12:02:24;11.93;;;2.42;;
77888;SDS011;67082;41.704;44.768;2023-04-06T12:04:53;6.72;;;2.00;;
77888;SDS011;67082;41.704;44.768;2023-04-06T12:07:23;8.10;;;2.00;;
77888;SDS011;67082;41.704;44.768;2023-04-06T12:09:51;6.75;;;2.00;;
77888;SDS011;67082;41.704;44.768;2023-04-06T12:12:20;7.20;;;2.20;;
77888;SDS011;67082;41.704;44.768;2023-04-06T12:14:48;7.75;;;2.50;;
77888;SDS011;67082;41.704;44.768;2023-04-06T12:17:17;5.45;;;2.25;;
77888;SDS011;67082;41.704;44.768;2023-04-06T12:19:46;7.97;;;1.95;;
77888;SDS011;67082;41.704;44.768;2023-04-06T12:22:15;7.88;;;1.90;;
77888;SDS011;67082;41.704;44.768;2023-04-06T12:24:43;5.00;;;1.73;;
77888;SDS011;67082;41.704;44.768;2023-04-06T12:27:11;7.55;;;1.70;;
77888;SDS011;67082;41.704;44.768;2023-04-06T12:29:40;6.18;;;1.90;;
77888;SDS011;67082;41.704;44.768;2023-04-06T12:32:10;6.47;;;1.75;;
77888;SDS011;67082;41.704;44.768;2023-04-06T12:34:37;4.55;;;2.38;;
77888;SDS011;67082;41.704;44.768;2023-04-06T12:37:07;5.65;;;1.60;;
77888;SDS011;67082;41.704;44.768;2023-04-06T12:39:35;9.25;;;1.90;;
77888;SDS011;67082;41.704;44.768;2023-04-06T12:42:03;4.85;;;1.27;;
77888;SDS011;67082;41.704;44.768;2023-04-06T12:44:31;4.30;;;1.63;;
77888;SDS011;67082;41.704;44.768;2023-04-06T12:47:00;5.13;;;1.60;;
77888;SDS011;67082;41.704;44.768;2023-04-06T12:49:28;6.47;;;1.88;;
77888;SDS011;67082;41.704;44.768;2023-04-06T12:51:58;5.03;;;1.83;;
77888;SDS011;67082;41.704;44.768;2023-04-06T12:54:27;5.30;;;1.75;;
77888;SDS011;67082;41.704;44.768;2023-04-06T12:56:55;6.72;;;1.40;;
77888;SDS011;67082;41.704;44.768;2023-04-06T12:59:23;4.10;;;1.70;;
77888;SDS011;67082;41.704;44.768;2023-04-06T13:01:52;9.40;;;1.70;;
77888;SDS011;67082;41.704;44.768;2023-04-06T13:04:20;5.00;;;1.85;;
77888;SDS011;67082;41.704;44.768;2023-04-06T13:06:49;5.88;;;2.05;;
77888;SDS011;67082;41.704;44.768;2023-04-06T13:09:16;5.50;;;2.10;;
77888;SDS011;67082;41.704;44.768;2023-04-06T13:11:45;4.80;;;1.60;;
77888;SDS011;67082;41.704;44.768;2023-04-06T13:14:13;2.97;;;1.60;;
77888;SDS011;67082;41.704;44.768;2023-04-06T13:16:41;2.65;;;1.30;;
77888;SDS011;67082;41.704;44.768;2023-04-06T13:19:10;4.70;;;1.88;;
77888;SDS011;67082;41.704;44.768;2023-04-06T13:21:38;5.32;;;2.50;;
77888;SDS011;67082;41.704;44.768;2023-04-06T13:24:07;4.93;;;2.40;;
77888;SDS011;67082;41.704;44.768;2023-04-06T13:26:35;7.55;;;3.30;;
77888;SDS011;67082;41.704;44.768;2023-04-06T13:29:03;6.32;;;2.22;;
77888;SDS011;67082;41.704;44.768;2023-04-06T13:31:32;6.60;;;2.20;;
77888;SDS011;67082;41.704;44.768;2023-04-06T13:34:00;8.30;;;3.15;;
77888;SDS011;67082;41.704;44.768;2023-04-06T13:36:28;6.13;;;3.28;;
77888;SDS011;67082;41.704;44.768;2023-04-06T13:38:56;13.82;;;3.83;;
77888;SDS011;67082;41.704;44.768;2023-04-06T13:41:25;11.65;;;3.83;;
77888;SDS011;67082;41.704;44.768;2023-04-06T13:43:53;9.20;;;3.80;;
77888;SDS011;67082;41.704;44.768;2023-04-06T13:46:23;10.30;;;4.25;;
77888;SDS011;67082;41.704;44.768;2023-04-06T13:48:51;12.82;;;3.40;;
77888;SDS011;67082;41.704;44.768;2023-04-06T13:51:19;11.70;;;4.20;;
77888;SDS011;67082;41.704;44.768;2023-04-06T13:53:47;6.63;;;3.00;;
77888;SDS011;67082;41.704;44.768;2023-04-06T13:56:20;13.30;;;3.55;;
77888;SDS011;67082;41.704;44.768;2023-04-06T13:58:48;9.60;;;3.47;;
77888;SDS011;67082;41.704;44.768;2023-04-06T14:01:17;7.30;;;3.10;;
77888;SDS011;67082;41.704;44.768;2023-04-06T14:03:45;10.10;;;3.42;;
77888;SDS011;67082;41.704;44.768;2023-04-06T14:06:15;7.40;;;3.15;;
77888;SDS011;67082;41.704;44.768;2023-04-06T14:08:47;8.75;;;4.20;;
77888;SDS011;67082;41.704;44.768;2023-04-06T14:11:15;9.02;;;3.78;;
77888;SDS011;67082;41.704;44.768;2023-04-06T14:13:43;8.23;;;3.40;;
77888;SDS011;67082;41.704;44.768;2023-04-06T14:16:12;10.73;;;3.47;;
77888;SDS011;67082;41.704;44.768;2023-04-06T14:18:40;9.02;;;3.42;;
77888;SDS011;67082;41.704;44.768;2023-04-06T14:21:08;11.20;;;3.50;;
77888;SDS011;67082;41.704;44.768;2023-04-06T14:23:36;9.63;;;3.40;;
77888;SDS011;67082;41.704;44.768;2023-04-06T14:26:05;8.63;;;3.50;;
77888;SDS011;67082;41.704;44.768;2023-04-06T14:28:35;9.00;;;3.53;;
77888;SDS011;67082;41.704;44.768;2023-04-06T14:31:09;8.65;;;3.60;;
77888;SDS011;67082;41.704;44.768;2023-04-06T14:33:42;14.40;;;4.28;;
77888;SDS011;67082;41.704;44.768;2023-04-06T14:36:11;11.45;;;3.63;;
77888;SDS011;67082;41.704;44.768;2023-04-06T14:38:39;12.43;;;3.92;;
77888;SDS011;67082;41.704;44.768;2023-04-06T14:41:08;8.60;;;3.50;;
77888;SDS011;67082;41.704;44.768;2023-04-06T14:43:37;11.15;;;4.05;;
77888;SDS011;67082;41.704;44.768;2023-04-06T14:46:24;8.52;;;3.80;;
77888;SDS011;67082;41.704;44.768;2023-04-06T14:48:56;11.35;;;3.50;;
77888;SDS011;67082;41.704;44.768;2023-04-06T14:51:27;8.75;;;3.72;;
77888;SDS011;67082;41.704;44.768;2023-04-06T14:53:56;9.45;;;4.47;;
77888;SDS011;67082;41.704;44.768;2023-04-06T14:56:24;8.40;;;3.42;;
77888;SDS011;67082;41.704;44.768;2023-04-06T14:58:52;9.07;;;4.00;;
77888;SDS011;67082;41.704;44.768;2023-04-06T15:01:20;11.75;;;4.13;;